sensor_id;sensor_type;location;lat;lon;timestamp;P1;durP1;ratioP1;P2;durP2;ratioP2
12214;SDS011;6170;42.206;24.142;2023-01-25T00:00:28;31.92;;;15.93;;
12214;SDS011;6170;42.206;24.142;2023-01-25T00:02:55;32.78;;;16.30;;
12214;SDS011;6170;42.206;24.142;2023-01-25T00:05:23;28.10;;;15.43;;
12214;SDS011;6170;42.206;24.142;2023-01-25T00:07:50;28.92;;;16.65;;
12214;SDS011;6170;42.206;24.142;2023-01-25T00:10:17;28.83;;;17.48;;
12214;SDS011;6170;42.206;24.142;2023-01-25T00:12:45;27.98;;;16.10;;
12214;SDS011;6170;42.206;24.142;2023-01-25T00:15:12;32.60;;;16.45;;
12214;SDS011;6170;42.206;24.142;2023-01-25T00:17:41;26.55;;;16.20;;
12214;SDS011;6170;42.206;24.142;2023-01-25T00:20:08;27.63;;;15.75;;
12214;SDS011;6170;42.206;24.142;2023-01-25T00:22:36;29.17;;;16.42;;
12214;SDS011;6170;42.206;24.142;2023-01-25T00:25:03;27.55;;;16.10;;
12214;SDS011;6170;42.206;24.142;2023-01-25T00:27:31;25.95;;;16.77;;
12214;SDS011;6170;42.206;24.142;2023-01-25T00:29:58;38.78;;;17.20;;
12214;SDS011;6170;42.206;24.142;2023-01-25T00:32:32;26.23;;;16.65;;
12214;SDS011;6170;42.206;24.142;2023-01-25T00:35:11;29.92;;;17.92;;
12214;SDS011;6170;42.206;24.142;2023-01-25T00:37:39;29.92;;;17.30;;
12214;SDS011;6170;42.206;24.142;2023-01-25T00:40:10;28.60;;;16.27;;
12214;SDS011;6170;42.206;24.142;2023-01-25T00:42:38;30.52;;;18.25;;
12214;SDS011;6170;42.206;24.142;2023-01-25T00:45:06;31.25;;;17.75;;
12214;SDS011;6170;42.206;24.142;2023-01-25T00:47:35;28.42;;;16.83;;
12214;SDS011;6170;42.206;24.142;2023-01-25T00:50:03;32.63;;;18.85;;
12214;SDS011;6170;42.206;24.142;2023-01-25T00:52:33;29.70;;;19.08;;
12214;SDS011;6170;42.206;24.142;2023-01-25T00:55:00;27.20;;;17.45;;
12214;SDS011;6170;42.206;24.142;2023-01-25T00:57:27;28.23;;;17.98;;
12214;SDS011;6170;42.206;24.142;2023-01-25T00:59:54;29.80;;;16.60;;
12214;SDS011;6170;42.206;24.142;2023-01-25T01:02:22;28.10;;;16.95;;
12214;SDS011;6170;42.206;24.142;2023-01-25T01:04:49;32.42;;;17.52;;
12214;SDS011;6170;42.206;24.142;2023-01-25T01:07:16;30.33;;;17.65;;
12214;SDS011;6170;42.206;24.142;2023-01-25T01:09:44;33.65;;;18.10;;
12214;SDS011;6170;42.206;24.142;2023-01-25T01:12:11;41.42;;;19.20;;
12214;SDS011;6170;42.206;24.142;2023-01-25T01:14:38;35.20;;;17.50;;
12214;SDS011;6170;42.206;24.142;2023-01-25T01:17:05;22.95;;;14.60;;
12214;SDS011;6170;42.206;24.142;2023-01-25T01:19:32;26.42;;;13.70;;
12214;SDS011;6170;42.206;24.142;2023-01-25T01:22:00;23.30;;;13.85;;
12214;SDS011;6170;42.206;24.142;2023-01-25T01:24:27;23.95;;;13.80;;
12214;SDS011;6170;42.206;24.142;2023-01-25T01:26:55;22.42;;;13.48;;
12214;SDS011;6170;42.206;24.142;2023-01-25T01:29:22;26.38;;;14.80;;
12214;SDS011;6170;42.206;24.142;2023-01-25T01:31:50;31.10;;;14.48;;
12214;SDS011;6170;42.206;24.142;2023-01-25T01:34:18;27.08;;;14.82;;
12214;SDS011;6170;42.206;24.142;2023-01-25T01:36:45;27.33;;;15.43;;
12214;SDS011;6170;42.206;24.142;2023-01-25T01:39:12;30.85;;;15.60;;
12214;SDS011;6170;42.206;24.142;2023-01-25T01:41:40;25.95;;;15.77;;
12214;SDS011;6170;42.206;24.142;2023-01-25T01:44:10;29.77;;;15.90;;
12214;SDS011;6170;42.206;24.142;2023-01-25T01:46:42;29.20;;;16.25;;
12214;SDS011;6170;42.206;24.142;2023-01-25T01:49:14;27.55;;;16.67;;
12214;SDS011;6170;42.206;24.142;2023-01-25T01:51:45;28.42;;;16.95;;
12214;SDS011;6170;42.206;24.142;2023-01-25T01:54:15;36.92;;;18.08;;
12214;SDS011;6170;42.206;24.142;2023-01-25T01:56:49;32.28;;;17.60;;
12214;SDS011;6170;42.206;24.142;2023-01-25T01:59:22;34.40;;;17.73;;
12214;SDS011;6170;42.206;24.142;2023-01-25T02:01:52;35.85;;;17.98;;
12214;SDS011;6170;42.206;24.142;2023-01-25T02:04:21;33.88;;;16.92;;
12214;SDS011;6170;42.206;24.142;2023-01-25T02:06:51;41.78;;;18.27;;
12214;SDS011;6170;42.206;24.142;2023-01-25T02:09:24;36.30;;;18.60;;
12214;SDS011;6170;42.206;24.142;2023-01-25T02:11:54;35.42;;;17.75;;
12214;SDS011;6170;42.206;24.142;2023-01-25T02:14:25;35.60;;;18.42;;
12214;SDS011;6170;42.206;24.142;2023-01-25T02:16:53;38.38;;;19.08;;
12214;SDS011;6170;42.206;24.142;2023-01-25T02:19:24;35.60;;;18.17;;
12214;SDS011;6170;42.206;24.142;2023-01-25T02:22:01;36.50;;;19.00;;
12214;SDS011;6170;42.206;24.142;2023-01-25T02:27:06;33.90;;;18.05;;
12214;SDS011;6170;42.206;24.142;2023-01-25T02:29:33;38.50;;;19.25;;
12214;SDS011;6170;42.206;24.142;2023-01-25T02:32:01;36.50;;;18.00;;
12214;SDS011;6170;42.206;24.142;2023-01-25T02:34:30;38.83;;;18.95;;
12214;SDS011;6170;42.206;24.142;2023-01-25T02:36:57;38.05;;;19.45;;
12214;SDS011;6170;42.206;24.142;2023-01-25T02:39:25;36.63;;;18.50;;
12214;SDS011;6170;42.206;24.142;2023-01-25T02:41:53;39.72;;;19.60;;
12214;SDS011;6170;42.206;24.142;2023-01-25T02:44:22;38.50;;;18.27;;
12214;SDS011;6170;42.206;24.142;2023-01-25T02:46:52;32.42;;;17.48;;
12214;SDS011;6170;42.206;24.142;2023-01-25T02:49:19;31.65;;;17.67;;
12214;SDS011;6170;42.206;24.142;2023-01-25T02:51:47;35.28;;;18.70;;
12214;SDS011;6170;42.206;24.142;2023-01-25T02:54:16;34.67;;;16.77;;
12214;SDS011;6170;42.206;24.142;2023-01-25T02:56:44;35.22;;;18.35;;
12214;SDS011;6170;42.206;24.142;2023-01-25T02:59:12;39.45;;;18.83;;
12214;SDS011;6170;42.206;24.142;2023-01-25T03:01:41;31.95;;;16.30;;
12214;SDS011;6170;42.206;24.142;2023-01-25T03:04:08;35.33;;;16.95;;
12214;SDS011;6170;42.206;24.142;2023-01-25T03:06:36;30.20;;;15.02;;
12214;SDS011;6170;42.206;24.142;2023-01-25T03:09:05;30.90;;;15.43;;
12214;SDS011;6170;42.206;24.142;2023-01-25T03:11:33;34.15;;;17.65;;
12214;SDS011;6170;42.206;24.142;2023-01-25T03:14:01;32.38;;;16.17;;
12214;SDS011;6170;42.206;24.142;2023-01-25T03:16:29;32.50;;;17.65;;
12214;SDS011;6170;42.206;24.142;2023-01-25T03:18:58;35.55;;;17.35;;
12214;SDS011;6170;42.206;24.142;2023-01-25T03:21:25;36.85;;;17.33;;
12214;SDS011;6170;42.206;24.142;2023-01-25T03:23:56;36.30;;;17.17;;
12214;SDS011;6170;42.206;24.142;2023-01-25T03:26:25;38.40;;;18.58;;
12214;SDS011;6170;42.206;24.142;2023-01-25T03:28:53;36.85;;;20.30;;
12214;SDS011;6170;42.206;24.142;2023-01-25T03:31:20;42.55;;;20.08;;
12214;SDS011;6170;42.206;24.142;2023-01-25T03:33:47;35.70;;;16.38;;
12214;SDS011;6170;42.206;24.142;2023-01-25T03:36:16;32.90;;;16.42;;
12214;SDS011;6170;42.206;24.142;2023-01-25T03:38:43;31.27;;;16.30;;
12214;SDS011;6170;42.206;24.142;2023-01-25T03:41:10;30.52;;;15.35;;
12214;SDS011;6170;42.206;24.142;2023-01-25T03:43:38;31.17;;;14.85;;
12214;SDS011;6170;42.206;24.142;2023-01-25T03:46:05;31.55;;;13.90;;
12214;SDS011;6170;42.206;24.142;2023-01-25T03:48:32;27.85;;;13.93;;
12214;SDS011;6170;42.206;24.142;2023-01-25T03:50:59;39.03;;;15.40;;
12214;SDS011;6170;42.206;24.142;2023-01-25T03:53:28;36.40;;;15.35;;
12214;SDS011;6170;42.206;24.142;2023-01-25T03:55:57;27.92;;;13.70;;
12214;SDS011;6170;42.206;24.142;2023-01-25T03:58:26;31.95;;;15.05;;
12214;SDS011;6170;42.206;24.142;2023-01-25T04:00:54;32.95;;;16.35;;
12214;SDS011;6170;42.206;24.142;2023-01-25T04:03:22;32.58;;;15.02;;
12214;SDS011;6170;42.206;24.142;2023-01-25T04:05:49;27.00;;;14.63;;
12214;SDS011;6170;42.206;24.142;2023-01-25T04:08:17;35.50;;;16.50;;
12214;SDS011;6170;42.206;24.142;2023-01-25T04:10:50;34.85;;;16.00;;
12214;SDS011;6170;42.206;24.142;2023-01-25T04:13:18;32.17;;;16.70;;
12214;SDS011;6170;42.206;24.142;2023-01-25T04:15:45;36.42;;;17.05;;
12214;SDS011;6170;42.206;24.142;2023-01-25T04:18:13;35.78;;;16.55;;
12214;SDS011;6170;42.206;24.142;2023-01-25T04:20:40;43.80;;;16.98;;
12214;SDS011;6170;42.206;24.142;2023-01-25T04:23:08;41.42;;;19.77;;
12214;SDS011;6170;42.206;24.142;2023-01-25T04:25:35;49.20;;;21.55;;
12214;SDS011;6170;42.206;24.142;2023-01-25T04:28:05;44.75;;;21.40;;
12214;SDS011;6170;42.206;24.142;2023-01-25T04:30:32;44.95;;;20.48;;
12214;SDS011;6170;42.206;24.142;2023-01-25T04:33:01;36.22;;;17.70;;
12214;SDS011;6170;42.206;24.142;2023-01-25T04:35:29;32.30;;;15.68;;
12214;SDS011;6170;42.206;24.142;2023-01-25T04:37:57;34.30;;;17.60;;
12214;SDS011;6170;42.206;24.142;2023-01-25T04:40:26;29.92;;;15.25;;
12214;SDS011;6170;42.206;24.142;2023-01-25T04:42:54;34.22;;;16.27;;
12214;SDS011;6170;42.206;24.142;2023-01-25T04:45:22;29.80;;;14.80;;
12214;SDS011;6170;42.206;24.142;2023-01-25T04:47:54;39.08;;;16.35;;
12214;SDS011;6170;42.206;24.142;2023-01-25T04:50:22;35.03;;;15.23;;
12214;SDS011;6170;42.206;24.142;2023-01-25T04:52:49;35.85;;;16.67;;
12214;SDS011;6170;42.206;24.142;2023-01-25T04:55:16;31.50;;;15.25;;
12214;SDS011;6170;42.206;24.142;2023-01-25T04:57:43;31.17;;;15.60;;
12214;SDS011;6170;42.206;24.142;2023-01-25T05:00:10;27.60;;;14.02;;
12214;SDS011;6170;42.206;24.142;2023-01-25T05:02:39;31.83;;;14.55;;
12214;SDS011;6170;42.206;24.142;2023-01-25T05:05:06;34.58;;;15.88;;
12214;SDS011;6170;42.206;24.142;2023-01-25T05:07:34;32.70;;;14.35;;
12214;SDS011;6170;42.206;24.142;2023-01-25T05:10:01;33.90;;;14.38;;
12214;SDS011;6170;42.206;24.142;2023-01-25T05:12:28;30.15;;;15.18;;
12214;SDS011;6170;42.206;24.142;2023-01-25T05:14:55;30.20;;;14.73;;
12214;SDS011;6170;42.206;24.142;2023-01-25T05:17:22;32.95;;;15.43;;
12214;SDS011;6170;42.206;24.142;2023-01-25T05:19:50;32.70;;;15.00;;
12214;SDS011;6170;42.206;24.142;2023-01-25T05:22:17;27.50;;;14.65;;
12214;SDS011;6170;42.206;24.142;2023-01-25T05:24:45;32.78;;;14.60;;
12214;SDS011;6170;42.206;24.142;2023-01-25T05:27:14;31.48;;;15.20;;
12214;SDS011;6170;42.206;24.142;2023-01-25T05:29:42;30.90;;;14.73;;
12214;SDS011;6170;42.206;24.142;2023-01-25T05:32:10;31.90;;;15.32;;
12214;SDS011;6170;42.206;24.142;2023-01-25T05:34:39;29.88;;;14.38;;
12214;SDS011;6170;42.206;24.142;2023-01-25T05:37:08;32.63;;;15.75;;
12214;SDS011;6170;42.206;24.142;2023-01-25T05:39:37;30.70;;;14.38;;
12214;SDS011;6170;42.206;24.142;2023-01-25T05:42:07;30.65;;;15.15;;
12214;SDS011;6170;42.206;24.142;2023-01-25T05:44:35;30.55;;;13.27;;
12214;SDS011;6170;42.206;24.142;2023-01-25T05:47:02;29.67;;;13.07;;
12214;SDS011;6170;42.206;24.142;2023-01-25T05:49:29;28.70;;;14.02;;
12214;SDS011;6170;42.206;24.142;2023-01-25T05:51:56;27.92;;;13.65;;
12214;SDS011;6170;42.206;24.142;2023-01-25T05:54:24;29.00;;;13.75;;
12214;SDS011;6170;42.206;24.142;2023-01-25T05:56:52;33.85;;;14.45;;
12214;SDS011;6170;42.206;24.142;2023-01-25T05:59:18;33.75;;;14.43;;
12214;SDS011;6170;42.206;24.142;2023-01-25T06:01:45;31.27;;;15.52;;
12214;SDS011;6170;42.206;24.142;2023-01-25T06:04:13;29.55;;;13.73;;
12214;SDS011;6170;42.206;24.142;2023-01-25T06:06:41;31.08;;;15.18;;
12214;SDS011;6170;42.206;24.142;2023-01-25T06:09:08;35.30;;;15.30;;
12214;SDS011;6170;42.206;24.142;2023-01-25T06:11:37;32.55;;;15.45;;
12214;SDS011;6170;42.206;24.142;2023-01-25T06:14:04;33.70;;;14.80;;
12214;SDS011;6170;42.206;24.142;2023-01-25T06:16:31;31.20;;;15.52;;
12214;SDS011;6170;42.206;24.142;2023-01-25T06:18:58;30.83;;;15.38;;
12214;SDS011;6170;42.206;24.142;2023-01-25T06:21:25;33.15;;;14.35;;
12214;SDS011;6170;42.206;24.142;2023-01-25T06:23:52;28.85;;;14.85;;
12214;SDS011;6170;42.206;24.142;2023-01-25T06:26:19;35.95;;;16.05;;
12214;SDS011;6170;42.206;24.142;2023-01-25T06:28:48;31.77;;;13.98;;
12214;SDS011;6170;42.206;24.142;2023-01-25T06:31:15;25.92;;;12.40;;
12214;SDS011;6170;42.206;24.142;2023-01-25T06:33:46;28.77;;;13.40;;
12214;SDS011;6170;42.206;24.142;2023-01-25T06:36:14;28.63;;;14.10;;
12214;SDS011;6170;42.206;24.142;2023-01-25T06:38:46;36.50;;;14.88;;
12214;SDS011;6170;42.206;24.142;2023-01-25T06:41:13;31.65;;;14.93;;
12214;SDS011;6170;42.206;24.142;2023-01-25T06:43:40;33.83;;;15.32;;
12214;SDS011;6170;42.206;24.142;2023-01-25T06:46:09;31.45;;;15.35;;
12214;SDS011;6170;42.206;24.142;2023-01-25T06:48:37;28.00;;;13.30;;
12214;SDS011;6170;42.206;24.142;2023-01-25T06:51:05;27.48;;;12.90;;
12214;SDS011;6170;42.206;24.142;2023-01-25T06:53:33;28.35;;;12.93;;
12214;SDS011;6170;42.206;24.142;2023-01-25T06:56:04;24.35;;;12.25;;
12214;SDS011;6170;42.206;24.142;2023-01-25T06:58:33;27.80;;;12.07;;
12214;SDS011;6170;42.206;24.142;2023-01-25T07:01:01;23.65;;;11.45;;
12214;SDS011;6170;42.206;24.142;2023-01-25T07:03:31;27.77;;;12.98;;
12214;SDS011;6170;42.206;24.142;2023-01-25T07:05:58;24.80;;;12.18;;
12214;SDS011;6170;42.206;24.142;2023-01-25T07:08:26;22.92;;;12.00;;
12214;SDS011;6170;42.206;24.142;2023-01-25T07:10:53;26.70;;;11.25;;
12214;SDS011;6170;42.206;24.142;2023-01-25T07:13:21;32.38;;;12.82;;
12214;SDS011;6170;42.206;24.142;2023-01-25T07:15:53;30.63;;;12.70;;
12214;SDS011;6170;42.206;24.142;2023-01-25T07:18:20;29.02;;;12.55;;
12214;SDS011;6170;42.206;24.142;2023-01-25T07:20:49;25.25;;;11.85;;
12214;SDS011;6170;42.206;24.142;2023-01-25T07:23:16;28.10;;;12.98;;
12214;SDS011;6170;42.206;24.142;2023-01-25T07:25:43;25.77;;;13.00;;
12214;SDS011;6170;42.206;24.142;2023-01-25T07:28:11;25.95;;;13.25;;
12214;SDS011;6170;42.206;24.142;2023-01-25T07:30:38;25.60;;;12.60;;
12214;SDS011;6170;42.206;24.142;2023-01-25T07:33:05;27.58;;;13.18;;
12214;SDS011;6170;42.206;24.142;2023-01-25T07:35:33;28.63;;;13.50;;
12214;SDS011;6170;42.206;24.142;2023-01-25T07:38:01;24.83;;;12.90;;
12214;SDS011;6170;42.206;24.142;2023-01-25T07:40:29;25.70;;;11.88;;
12214;SDS011;6170;42.206;24.142;2023-01-25T07:42:56;24.02;;;11.35;;
12214;SDS011;6170;42.206;24.142;2023-01-25T07:45:23;24.15;;;12.32;;
12214;SDS011;6170;42.206;24.142;2023-01-25T07:47:54;27.10;;;12.18;;
12214;SDS011;6170;42.206;24.142;2023-01-25T07:50:23;23.95;;;11.02;;
12214;SDS011;6170;42.206;24.142;2023-01-25T07:52:50;23.48;;;11.80;;
12214;SDS011;6170;42.206;24.142;2023-01-25T07:55:18;23.67;;;11.35;;
12214;SDS011;6170;42.206;24.142;2023-01-25T07:57:45;20.60;;;10.60;;
12214;SDS011;6170;42.206;24.142;2023-01-25T08:00:13;23.23;;;10.60;;
12214;SDS011;6170;42.206;24.142;2023-01-25T08:02:40;18.80;;;8.70;;
12214;SDS011;6170;42.206;24.142;2023-01-25T08:05:07;19.77;;;10.10;;
12214;SDS011;6170;42.206;24.142;2023-01-25T08:07:35;22.52;;;9.70;;
12214;SDS011;6170;42.206;24.142;2023-01-25T08:10:02;18.95;;;9.45;;
12214;SDS011;6170;42.206;24.142;2023-01-25T08:12:32;18.42;;;9.35;;
12214;SDS011;6170;42.206;24.142;2023-01-25T08:14:59;16.35;;;8.50;;
12214;SDS011;6170;42.206;24.142;2023-01-25T08:17:26;19.65;;;9.20;;
12214;SDS011;6170;42.206;24.142;2023-01-25T08:19:56;15.52;;;7.85;;
12214;SDS011;6170;42.206;24.142;2023-01-25T08:22:24;18.25;;;8.27;;
12214;SDS011;6170;42.206;24.142;2023-01-25T08:24:51;15.52;;;7.93;;
12214;SDS011;6170;42.206;24.142;2023-01-25T08:27:18;19.00;;;9.35;;
12214;SDS011;6170;42.206;24.142;2023-01-25T08:29:46;23.80;;;10.10;;
12214;SDS011;6170;42.206;24.142;2023-01-25T08:32:15;20.38;;;9.43;;
12214;SDS011;6170;42.206;24.142;2023-01-25T08:34:42;11.80;;;6.70;;
12214;SDS011;6170;42.206;24.142;2023-01-25T08:37:09;16.30;;;7.22;;
12214;SDS011;6170;42.206;24.142;2023-01-25T08:39:37;14.27;;;6.68;;
12214;SDS011;6170;42.206;24.142;2023-01-25T08:42:04;13.18;;;7.13;;
12214;SDS011;6170;42.206;24.142;2023-01-25T08:44:31;12.98;;;7.15;;
12214;SDS011;6170;42.206;24.142;2023-01-25T08:46:59;14.38;;;6.70;;
12214;SDS011;6170;42.206;24.142;2023-01-25T08:49:26;16.25;;;7.57;;
12214;SDS011;6170;42.206;24.142;2023-01-25T08:51:55;18.20;;;8.27;;
12214;SDS011;6170;42.206;24.142;2023-01-25T08:54:22;17.63;;;9.15;;
12214;SDS011;6170;42.206;24.142;2023-01-25T08:56:49;17.98;;;8.93;;
12214;SDS011;6170;42.206;24.142;2023-01-25T08:59:16;17.35;;;8.32;;
12214;SDS011;6170;42.206;24.142;2023-01-25T09:01:43;16.08;;;8.55;;
12214;SDS011;6170;42.206;24.142;2023-01-25T09:04:11;18.10;;;8.48;;
12214;SDS011;6170;42.206;24.142;2023-01-25T09:06:38;14.63;;;8.73;;
12214;SDS011;6170;42.206;24.142;2023-01-25T09:09:05;16.63;;;8.38;;
12214;SDS011;6170;42.206;24.142;2023-01-25T09:11:33;18.30;;;7.57;;
12214;SDS011;6170;42.206;24.142;2023-01-25T09:14:02;15.38;;;7.55;;
12214;SDS011;6170;42.206;24.142;2023-01-25T09:16:29;13.73;;;7.35;;
12214;SDS011;6170;42.206;24.142;2023-01-25T09:18:56;16.55;;;8.20;;
12214;SDS011;6170;42.206;24.142;2023-01-25T09:21:26;18.35;;;7.40;;
12214;SDS011;6170;42.206;24.142;2023-01-25T09:23:53;17.42;;;7.97;;
12214;SDS011;6170;42.206;24.142;2023-01-25T09:26:21;17.45;;;7.82;;
12214;SDS011;6170;42.206;24.142;2023-01-25T09:28:49;17.30;;;8.43;;
12214;SDS011;6170;42.206;24.142;2023-01-25T09:31:18;15.13;;;7.65;;
12214;SDS011;6170;42.206;24.142;2023-01-25T09:33:46;17.23;;;8.13;;
12214;SDS011;6170;42.206;24.142;2023-01-25T09:36:13;15.50;;;7.60;;
12214;SDS011;6170;42.206;24.142;2023-01-25T09:38:42;15.68;;;8.35;;
12214;SDS011;6170;42.206;24.142;2023-01-25T09:41:25;14.45;;;7.95;;
12214;SDS011;6170;42.206;24.142;2023-01-25T09:44:17;14.95;;;7.68;;
12214;SDS011;6170;42.206;24.142;2023-01-25T09:46:55;12.20;;;6.68;;
12214;SDS011;6170;42.206;24.142;2023-01-25T09:49:39;16.05;;;8.40;;
12214;SDS011;6170;42.206;24.142;2023-01-25T09:52:30;17.15;;;8.50;;
12214;SDS011;6170;42.206;24.142;2023-01-25T09:55:21;18.17;;;8.77;;
12214;SDS011;6170;42.206;24.142;2023-01-25T09:57:51;17.08;;;9.05;;
12214;SDS011;6170;42.206;24.142;2023-01-25T10:00:22;20.40;;;8.40;;
12214;SDS011;6170;42.206;24.142;2023-01-25T10:05:24;16.67;;;8.23;;
12214;SDS011;6170;42.206;24.142;2023-01-25T10:07:56;18.80;;;9.02;;
12214;SDS011;6170;42.206;24.142;2023-01-25T10:10:31;21.58;;;9.45;;
12214;SDS011;6170;42.206;24.142;2023-01-25T10:13:01;18.92;;;9.82;;
12214;SDS011;6170;42.206;24.142;2023-01-25T10:15:29;17.40;;;8.73;;
12214;SDS011;6170;42.206;24.142;2023-01-25T10:18:03;18.25;;;7.95;;
12214;SDS011;6170;42.206;24.142;2023-01-25T10:20:42;22.55;;;8.85;;
12214;SDS011;6170;42.206;24.142;2023-01-25T10:23:26;18.88;;;9.05;;
12214;SDS011;6170;42.206;24.142;2023-01-25T10:26:05;18.67;;;9.20;;
12214;SDS011;6170;42.206;24.142;2023-01-25T10:28:40;23.65;;;11.15;;
12214;SDS011;6170;42.206;24.142;2023-01-25T10:31:15;22.60;;;9.50;;
12214;SDS011;6170;42.206;24.142;2023-01-25T10:33:44;16.35;;;8.82;;
12214;SDS011;6170;42.206;24.142;2023-01-25T10:36:13;19.45;;;8.98;;
12214;SDS011;6170;42.206;24.142;2023-01-25T10:38:42;19.85;;;8.98;;
12214;SDS011;6170;42.206;24.142;2023-01-25T10:41:12;21.48;;;9.85;;
12214;SDS011;6170;42.206;24.142;2023-01-25T10:43:45;17.92;;;9.55;;
12214;SDS011;6170;42.206;24.142;2023-01-25T10:46:32;17.50;;;9.10;;
12214;SDS011;6170;42.206;24.142;2023-01-25T10:49:01;15.55;;;8.95;;
12214;SDS011;6170;42.206;24.142;2023-01-25T10:51:38;18.52;;;9.30;;
12214;SDS011;6170;42.206;24.142;2023-01-25T10:54:07;15.88;;;9.13;;
12214;SDS011;6170;42.206;24.142;2023-01-25T10:56:42;18.55;;;8.68;;
12214;SDS011;6170;42.206;24.142;2023-01-25T10:59:15;16.65;;;8.85;;
12214;SDS011;6170;42.206;24.142;2023-01-25T11:01:45;19.92;;;8.05;;
12214;SDS011;6170;42.206;24.142;2023-01-25T11:04:31;20.40;;;9.73;;
12214;SDS011;6170;42.206;24.142;2023-01-25T11:07:00;18.58;;;9.30;;
12214;SDS011;6170;42.206;24.142;2023-01-25T11:09:33;13.98;;;8.15;;
12214;SDS011;6170;42.206;24.142;2023-01-25T11:12:03;18.02;;;8.98;;
12214;SDS011;6170;42.206;24.142;2023-01-25T11:14:41;21.33;;;8.95;;
12214;SDS011;6170;42.206;24.142;2023-01-25T11:17:19;20.67;;;9.13;;
12214;SDS011;6170;42.206;24.142;2023-01-25T11:19:52;17.55;;;8.93;;
12214;SDS011;6170;42.206;24.142;2023-01-25T11:22:31;24.20;;;9.23;;
12214;SDS011;6170;42.206;24.142;2023-01-25T11:24:58;22.77;;;10.80;;
12214;SDS011;6170;42.206;24.142;2023-01-25T11:27:52;22.88;;;10.70;;
12214;SDS011;6170;42.206;24.142;2023-01-25T11:30:36;24.60;;;10.50;;
12214;SDS011;6170;42.206;24.142;2023-01-25T11:33:07;16.58;;;9.38;;
12214;SDS011;6170;42.206;24.142;2023-01-25T11:35:36;19.77;;;9.98;;
12214;SDS011;6170;42.206;24.142;2023-01-25T11:38:13;22.13;;;10.07;;
12214;SDS011;6170;42.206;24.142;2023-01-25T11:40:46;24.13;;;10.65;;
12214;SDS011;6170;42.206;24.142;2023-01-25T11:43:22;19.10;;;8.32;;
12214;SDS011;6170;42.206;24.142;2023-01-25T11:46:19;19.70;;;9.15;;
12214;SDS011;6170;42.206;24.142;2023-01-25T11:49:03;18.40;;;9.13;;
12214;SDS011;6170;42.206;24.142;2023-01-25T11:51:48;21.02;;;10.13;;
12214;SDS011;6170;42.206;24.142;2023-01-25T11:54:27;18.00;;;9.65;;
12214;SDS011;6170;42.206;24.142;2023-01-25T11:57:05;17.45;;;8.95;;
12214;SDS011;6170;42.206;24.142;2023-01-25T11:59:50;19.55;;;9.88;;
12214;SDS011;6170;42.206;24.142;2023-01-25T12:02:45;18.30;;;9.52;;
12214;SDS011;6170;42.206;24.142;2023-01-25T12:05:27;23.20;;;10.93;;
12214;SDS011;6170;42.206;24.142;2023-01-25T12:08:10;22.13;;;9.93;;
12214;SDS011;6170;42.206;24.142;2023-01-25T12:10:50;20.70;;;9.80;;
12214;SDS011;6170;42.206;24.142;2023-01-25T12:13:28;21.75;;;9.48;;
12214;SDS011;6170;42.206;24.142;2023-01-25T12:16:11;19.65;;;8.98;;
12214;SDS011;6170;42.206;24.142;2023-01-25T12:18:54;15.25;;;8.50;;
12214;SDS011;6170;42.206;24.142;2023-01-25T12:21:35;17.13;;;9.07;;
12214;SDS011;6170;42.206;24.142;2023-01-25T12:24:21;17.67;;;9.40;;
12214;SDS011;6170;42.206;24.142;2023-01-25T12:27:05;21.33;;;9.63;;
12214;SDS011;6170;42.206;24.142;2023-01-25T12:29:44;22.42;;;9.85;;
12214;SDS011;6170;42.206;24.142;2023-01-25T12:32:17;19.38;;;9.60;;
12214;SDS011;6170;42.206;24.142;2023-01-25T12:34:50;23.60;;;11.25;;
12214;SDS011;6170;42.206;24.142;2023-01-25T12:37:26;20.27;;;10.40;;
12214;SDS011;6170;42.206;24.142;2023-01-25T12:39:59;19.77;;;10.30;;
12214;SDS011;6170;42.206;24.142;2023-01-25T12:42:30;22.17;;;10.13;;
12214;SDS011;6170;42.206;24.142;2023-01-25T12:47:34;19.55;;;9.13;;
12214;SDS011;6170;42.206;24.142;2023-01-25T12:50:08;21.90;;;11.00;;
12214;SDS011;6170;42.206;24.142;2023-01-25T12:52:43;37.47;;;16.73;;
12214;SDS011;6170;42.206;24.142;2023-01-25T12:55:13;29.25;;;12.82;;
12214;SDS011;6170;42.206;24.142;2023-01-25T12:57:42;20.40;;;9.85;;
12214;SDS011;6170;42.206;24.142;2023-01-25T13:00:17;19.15;;;8.98;;
12214;SDS011;6170;42.206;24.142;2023-01-25T13:02:59;17.75;;;9.70;;
12214;SDS011;6170;42.206;24.142;2023-01-25T13:05:36;16.00;;;8.20;;
12214;SDS011;6170;42.206;24.142;2023-01-25T13:08:11;15.70;;;7.85;;
12214;SDS011;6170;42.206;24.142;2023-01-25T13:10:47;18.40;;;8.50;;
12214;SDS011;6170;42.206;24.142;2023-01-25T13:13:19;17.73;;;8.25;;
12214;SDS011;6170;42.206;24.142;2023-01-25T13:15:49;17.88;;;9.23;;
12214;SDS011;6170;42.206;24.142;2023-01-25T13:24:20;21.35;;;9.85;;
12214;SDS011;6170;42.206;24.142;2023-01-25T13:26:49;21.25;;;10.77;;
12214;SDS011;6170;42.206;24.142;2023-01-25T13:35:35;31.80;;;14.90;;
12214;SDS011;6170;42.206;24.142;2023-01-25T13:38:27;30.30;;;14.75;;
12214;SDS011;6170;42.206;24.142;2023-01-25T13:41:01;25.20;;;12.93;;
12214;SDS011;6170;42.206;24.142;2023-01-25T13:43:34;23.15;;;11.95;;
12214;SDS011;6170;42.206;24.142;2023-01-25T13:46:02;26.17;;;12.70;;
12214;SDS011;6170;42.206;24.142;2023-01-25T13:48:32;23.33;;;12.50;;
12214;SDS011;6170;42.206;24.142;2023-01-25T13:51:05;25.52;;;12.18;;
12214;SDS011;6170;42.206;24.142;2023-01-25T13:53:36;22.08;;;11.35;;
12214;SDS011;6170;42.206;24.142;2023-01-25T13:56:04;20.65;;;11.20;;
12214;SDS011;6170;42.206;24.142;2023-01-25T13:58:33;22.90;;;10.95;;
12214;SDS011;6170;42.206;24.142;2023-01-25T14:01:02;26.00;;;11.18;;
12214;SDS011;6170;42.206;24.142;2023-01-25T14:03:33;25.13;;;10.00;;
12214;SDS011;6170;42.206;24.142;2023-01-25T14:06:04;28.83;;;11.10;;
12214;SDS011;6170;42.206;24.142;2023-01-25T14:08:32;26.45;;;11.63;;
12214;SDS011;6170;42.206;24.142;2023-01-25T14:10:59;24.00;;;10.93;;
12214;SDS011;6170;42.206;24.142;2023-01-25T14:13:27;20.10;;;10.45;;
12214;SDS011;6170;42.206;24.142;2023-01-25T14:15:54;23.20;;;10.85;;
12214;SDS011;6170;42.206;24.142;2023-01-25T14:18:27;24.48;;;11.40;;
12214;SDS011;6170;42.206;24.142;2023-01-25T14:21:13;23.05;;;9.55;;
12214;SDS011;6170;42.206;24.142;2023-01-25T14:23:42;24.48;;;10.98;;
12214;SDS011;6170;42.206;24.142;2023-01-25T14:28:43;25.05;;;11.75;;
12214;SDS011;6170;42.206;24.142;2023-01-25T14:31:12;24.70;;;11.60;;
12214;SDS011;6170;42.206;24.142;2023-01-25T14:33:45;23.73;;;11.48;;
12214;SDS011;6170;42.206;24.142;2023-01-25T14:36:20;20.90;;;10.70;;
12214;SDS011;6170;42.206;24.142;2023-01-25T14:38:47;24.88;;;11.70;;
12214;SDS011;6170;42.206;24.142;2023-01-25T14:41:16;22.92;;;11.25;;
12214;SDS011;6170;42.206;24.142;2023-01-25T14:43:46;23.27;;;10.88;;
12214;SDS011;6170;42.206;24.142;2023-01-25T14:46:18;25.83;;;11.52;;
12214;SDS011;6170;42.206;24.142;2023-01-25T14:48:50;18.08;;;9.63;;
12214;SDS011;6170;42.206;24.142;2023-01-25T14:51:24;21.33;;;9.50;;
12214;SDS011;6170;42.206;24.142;2023-01-25T14:53:56;24.00;;;10.23;;
12214;SDS011;6170;42.206;24.142;2023-01-25T14:56:31;19.10;;;9.00;;
12214;SDS011;6170;42.206;24.142;2023-01-25T14:59:05;20.17;;;9.43;;
12214;SDS011;6170;42.206;24.142;2023-01-25T15:01:35;22.23;;;9.95;;
12214;SDS011;6170;42.206;24.142;2023-01-25T15:04:08;19.02;;;8.07;;
12214;SDS011;6170;42.206;24.142;2023-01-25T15:06:46;17.05;;;8.35;;